Time;durP1;ratioP1;P1;durP2;ratioP2;P2;SDS_P1;SDS_P2;PMS_P1;PMS_P2;Temp;Humidity;BMP_temperature;BMP_pressure;BME280_temperature;BME280_humidity;BME280_pressure;Samples;Min_cycle;Max_cycle;Signal;HPM_P1;HPM_P2
2022/11/11 19:36:46;;;;;;;53.17;23.33;;;8.30;99.90;;;;;;5111275;27;20292;-69
2022/11/11 19:39:12;;;;;;;65.37;26.30;;;8.20;99.90;;;;;;5111270;28;20106;-68
2022/11/11 19:41:37;;;;;;;62.03;24.20;;;8.30;99.90;;;;;;5111051;28;20215;-68
2022/11/11 19:44:03;;;;;;;60.97;25.77;;;8.50;99.90;;;;;;5110448;28;20032;-69
2022/11/11 19:46:34;;;;;;;55.13;22.10;;;8.50;99.90;;;;;;5109762;28;20056;-68
2022/11/11 19:49:00;;;;;;;57.17;23.63;;;8.60;99.90;;;;;;5108857;28;20054;-67
2022/11/11 19:51:27;;;;;;;44.80;21.67;;;8.60;99.90;;;;;;5108610;28;20055;-67
2022/11/11 19:53:53;;;;;;;47.22;20.90;;;8.70;99.90;;;;;;5088635;28;20042;-68
2022/11/11 19:56:19;;;;;;;75.07;21.20;;;8.70;99.90;;;;;;5088612;28;20025;-68
2022/11/11 19:58:46;;;;;;;58.67;19.85;;;8.70;99.90;;;;;;5088565;28;20025;-67
2022/11/11 20:01:13;;;;;;;;;;;8.70;99.90;;;;;;5087749;28;20077;-68
2022/11/11 20:03:39;;;;;;;40.55;20.10;;;8.60;99.90;;;;;;5094954;28;19912;-69
2022/11/11 20:06:06;;;;;;;39.78;18.88;;;8.70;99.90;;;;;;5109107;28;20027;-67
2022/11/11 20:08:31;;;;;;;;;;;8.60;99.90;;;;;;5109635;28;20347;-69
2022/11/11 20:11:06;;;;;;;32.40;16.50;;;8.60;99.90;;;;;;5096990;28;19995;-67
2022/11/11 20:13:32;;;;;;;41.65;19.27;;;8.50;99.90;;;;;;5103813;28;20056;-68
2022/11/11 20:16:01;;;;;;;39.28;19.77;;;8.50;99.90;;;;;;5089976;28;20086;-69
2022/11/11 20:18:28;;;;;;;68.65;21.98;;;8.60;99.90;;;;;;5090033;28;20020;-68
2022/11/11 20:20:57;;;;;;;;;;;8.70;99.90;;;;;;5090281;28;20012;-69
2022/11/11 20:23:23;;;;;;;74.63;18.73;;;8.60;99.90;;;;;;5106592;28;19907;-69
2022/11/11 20:25:48;;;;;;;49.00;18.13;;;8.60;99.90;;;;;;5110133;28;20032;-68
2022/11/11 20:28:14;;;;;;;48.23;18.90;;;8.50;99.90;;;;;;5110247;28;20020;-69
2022/11/11 20:30:39;;;;;;;46.40;17.77;;;8.60;99.90;;;;;;5108038;28;20077;-69
2022/11/11 20:33:05;;;;;;;34.60;16.53;;;8.60;99.90;;;;;;5099067;28;20081;-69
2022/11/11 20:35:30;;;;;;;41.33;18.30;;;8.70;99.90;;;;;;5096864;28;20052;-68
2022/11/11 20:37:57;;;;;;;37.00;17.80;;;8.70;99.90;;;;;;5108830;28;20486;-69
2022/11/11 20:40:23;;;;;;;38.53;17.02;;;8.70;99.90;;;;;;5109848;28;20028;-70
2022/11/11 20:42:48;;;;;;;39.40;16.97;;;8.80;99.90;;;;;;5108528;28;20529;-68
2022/11/11 20:45:14;;;;;;;32.97;17.03;;;8.90;99.90;;;;;;5108453;28;20019;-68
2022/11/11 20:47:39;;;;;;;30.03;15.97;;;8.80;99.90;;;;;;5082271;28;20020;-68
2022/11/11 20:50:05;;;;;;;34.37;17.67;;;8.60;99.90;;;;;;5076192;28;20028;-69
2022/11/11 20:52:31;;;;;;;33.70;17.30;;;8.60;99.90;;;;;;5075728;28;20036;-70
2022/11/11 20:54:56;;;;;;;35.77;18.57;;;8.60;99.90;;;;;;5075942;28;20109;-69
2022/11/11 20:57:22;;;;;;;38.27;17.57;;;8.80;99.90;;;;;;5082266;28;20028;-69
2022/11/11 20:59:48;;;;;;;42.53;17.03;;;8.70;99.90;;;;;;5090104;28;20034;-68
2022/11/11 21:02:14;;;;;;;34.20;17.23;;;8.70;99.90;;;;;;5091364;28;20104;-68
2022/11/11 21:04:39;;;;;;;44.10;17.55;;;8.80;99.90;;;;;;5077875;28;20477;-71
2022/11/11 21:07:05;;;;;;;43.33;17.63;;;8.70;99.90;;;;;;5075252;28;20035;-69
2022/11/11 21:09:31;;;;;;;35.00;17.67;;;8.50;99.90;;;;;;5076280;28;20029;-69
2022/11/11 21:11:56;;;;;;;39.60;18.17;;;8.50;99.90;;;;;;5083806;28;20103;-71
2022/11/11 21:14:24;;;;;;;39.13;18.07;;;8.50;99.90;;;;;;5083231;28;20031;-71
2022/11/11 21:16:50;;;;;;;39.95;17.95;;;8.50;99.90;;;;;;5078929;28;20071;-68
2022/11/11 21:19:15;;;;;;;35.20;17.70;;;8.50;99.90;;;;;;5083361;28;20023;-70
2022/11/11 21:21:41;;;;;;;39.77;15.90;;;8.50;99.90;;;;;;5076494;28;20052;-69
2022/11/11 21:24:07;;;;;;;35.63;17.37;;;8.50;99.90;;;;;;5076714;28;20039;-68
2022/11/11 21:26:35;;;;;;;34.97;17.13;;;8.60;99.90;;;;;;5074136;28;20032;-71
2022/11/11 21:29:01;;;;;;;36.13;17.33;;;8.60;99.90;;;;;;5079710;28;20427;-70
2022/11/11 21:31:27;;;;;;;35.10;17.98;;;8.50;99.90;;;;;;5093982;28;20020;-70
2022/11/11 21:33:59;;;;;;;37.22;18.13;;;8.50;99.90;;;;;;5086318;28;20028;-69
2022/11/11 21:36:28;;;;;;;35.55;17.38;;;8.50;99.90;;;;;;5074967;28;20036;-69
2022/11/11 21:38:54;;;;;;;33.50;16.70;;;8.50;99.90;;;;;;5072501;28;20362;-69
2022/11/11 21:41:22;;;;;;;32.58;17.50;;;8.60;99.90;;;;;;5090775;28;20031;-67
2022/11/11 21:43:48;;;;;;;42.97;19.00;;;8.70;99.90;;;;;;5093543;28;20025;-69
2022/11/11 21:46:16;;;;;;;37.45;18.67;;;8.60;99.90;;;;;;5092562;28;20031;-69
2022/11/11 21:48:42;;;;;;;43.15;17.40;;;8.60;99.90;;;;;;5081937;28;20049;-69
2022/11/11 21:51:13;;;;;;;33.40;17.53;;;8.70;99.90;;;;;;5072753;28;20497;-69
2022/11/11 21:53:41;;;;;;;35.90;17.55;;;8.60;99.90;;;;;;5072223;28;20071;-70
2022/11/11 21:56:12;;;;;;;50.20;17.80;;;8.70;99.90;;;;;;5074743;28;20481;-69
2022/11/11 21:58:39;;;;;;;39.85;18.15;;;8.80;99.90;;;;;;5079178;28;20032;-71
